Time;durP1;ratioP1;P1;durP2;ratioP2;P2;SDS_P1;SDS_P2;PMS_P1;PMS_P2;Temp;Humidity;BMP_temperature;BMP_pressure;BME280_temperature;BME280_humidity;BME280_pressure;Samples;Min_cycle;Max_cycle;Signal;HPM_P1;HPM_P2
2022/01/16 00:04:07;;;;;;;39.42;16.58;;;;;;;1.52;100.00;101653.81;5046748;28;20036;-79
2022/01/16 00:06:37;;;;;;;40.65;16.23;;;;;;;1.71;100.00;101656.16;5048271;28;20072;-80
2022/01/16 00:09:04;;;;;;;46.80;20.23;;;;;;;2.04;100.00;101655.84;5032892;28;20029;-77
2022/01/16 00:11:30;;;;;;;41.63;19.52;;;;;;;2.22;100.00;101661.72;5048668;28;20016;-79
2022/01/16 00:13:56;;;;;;;38.80;17.33;;;;;;;2.13;100.00;101663.19;5029102;28;20036;-79
2022/01/16 00:16:22;;;;;;;32.70;14.35;;;;;;;2.12;100.00;101679.22;5051712;28;20036;-78
2022/01/16 00:18:52;;;;;;;35.05;16.73;;;;;;;1.92;100.00;101673.34;5035531;28;20043;-79
2022/01/16 00:21:33;;;;;;;40.88;17.35;;;;;;;1.70;100.00;101670.38;5015711;28;20474;-78
2022/01/16 00:23:59;;;;;;;30.23;14.00;;;;;;;1.56;100.00;101687.13;5012095;28;20033;-81
2022/01/16 00:26:25;;;;;;;39.90;17.75;;;;;;;1.56;100.00;101689.75;5046860;28;20394;-80
2022/01/16 00:28:57;;;;;;;33.60;14.93;;;;;;;1.52;100.00;101683.81;5046406;28;20028;-84
2022/01/16 00:31:24;;;;;;;47.75;15.45;;;;;;;1.56;100.00;101688.91;5019703;28;20089;-79
2022/01/16 00:33:51;;;;;;;41.42;15.23;;;;;;;1.58;100.00;101682.56;5017742;28;20119;-78
2022/01/16 00:36:18;;;;;;;30.08;12.32;;;;;;;1.56;100.00;101676.50;5049305;28;20471;-79
2022/01/16 00:38:49;;;;;;;31.73;13.23;;;;;;;1.56;100.00;101676.50;5050915;28;20039;-79
2022/01/16 00:41:20;;;;;;;31.05;13.63;;;;;;;1.56;100.00;101673.88;5032570;28;20605;-79
2022/01/16 00:43:46;;;;;;;28.33;12.13;;;;;;;1.52;100.00;101652.00;5015736;28;20534;-84
2022/01/16 00:46:12;;;;;;;29.20;10.60;;;;;;;1.62;100.00;101678.81;5040638;28;20040;-83
2022/01/16 00:48:38;;;;;;;30.13;12.40;;;;;;;1.62;100.00;101683.25;5033583;28;20041;-80
2022/01/16 00:51:04;;;;;;;40.42;14.27;;;;;;;1.57;100.00;101649.06;5016710;28;20055;-80
2022/01/16 00:53:29;;;;;;;38.90;15.00;;;;;;;1.88;100.00;101684.25;5041771;28;20020;-80
2022/01/16 00:55:55;;;;;;;40.00;15.57;;;;;;;1.94;100.00;101690.03;5017718;28;20037;-80
2022/01/16 00:58:21;;;;;;;40.53;17.73;;;;;;;1.96;100.00;101697.91;5044083;28;20081;-77
2022/01/16 01:00:47;;;;;;;48.53;17.33;;;;;;;2.03;100.00;101698.34;5040186;28;20043;-77
2022/01/16 01:03:14;;;;;;;50.35;17.02;;;;;;;2.10;100.00;101705.84;5051437;28;20078;-77
2022/01/16 01:05:39;;;;;;;43.72;15.30;;;;;;;2.16;100.00;101721.34;5033703;28;20036;-80
2022/01/16 01:08:05;;;;;;;43.83;16.98;;;;;;;2.30;100.00;101722.25;5014681;28;20056;-79
2022/01/16 01:10:35;;;;;;;34.92;18.55;;;;;;;2.53;100.00;101740.22;5047701;28;20163;-79
2022/01/16 01:16:02;;;;;;;54.95;19.45;;;;;;;2.34;100.00;101707.88;5015985;28;20121;-78
2022/01/16 01:18:30;;;;;;;51.15;22.17;;;;;;;2.75;100.00;101755.63;5050373;28;20093;-79
2022/01/16 01:20:57;;;;;;;59.35;25.05;;;;;;;2.81;100.00;101764.97;5031394;28;20040;-84
2022/01/16 01:23:23;;;;;;;60.55;23.65;;;;;;;2.79;100.00;101750.94;5045409;28;20059;-82
2022/01/16 01:25:49;;;;;;;67.38;26.10;;;;;;;2.51;100.00;101717.38;5030733;28;20063;-77
2022/01/16 01:28:15;;;;;;;62.85;25.85;;;;;;;2.80;100.00;101763.25;5033508;28;20089;-79
2022/01/16 01:30:44;;;;;;;64.72;26.85;;;;;;;2.79;100.00;101774.84;5028780;28;20024;-77
2022/01/16 01:33:14;;;;;;;60.83;25.23;;;;;;;2.83;100.00;101779.00;5031824;28;20524;-79
2022/01/16 01:35:41;;;;;;;61.22;21.83;;;;;;;2.84;100.00;101719.63;5034048;28;20029;-81
2022/01/16 01:38:08;;;;;;;53.97;24.70;;;;;;;2.87;100.00;101711.44;5049758;28;20054;-77
2022/01/16 01:40:34;;;;;;;64.30;23.45;;;;;;;2.98;100.00;101743.44;5015003;28;20566;-79
2022/01/16 01:51:21;;;;;;;82.65;28.83;;;;;;;3.25;100.00;101748.72;5027739;28;20036;-84
2022/01/16 01:53:49;;;;;;;69.70;27.23;;;;;;;3.25;100.00;101661.00;5044508;28;20315;-82
2022/01/16 01:56:22;;;;;;;83.22;30.02;;;;;;;3.27;100.00;101682.16;5029060;28;20082;-78
2022/01/16 01:58:47;;;;;;;91.75;30.48;;;;;;;3.37;100.00;101691.22;5026810;28;20474;-82
2022/01/16 02:01:13;;;;;;;93.22;28.92;;;;;;;3.27;100.00;101677.69;5052530;28;20044;-79
2022/01/16 02:06:06;;;;;;;91.10;28.23;;;;;;;3.34;100.00;101715.34;5038751;28;20028;-79
2022/01/16 02:08:35;;;;;;;90.95;28.92;;;;;;;3.29;100.00;101744.91;5031618;28;20055;-78
2022/01/16 02:11:02;;;;;;;95.82;30.73;;;;;;;3.24;100.00;101743.50;5041530;28;20093;-79
2022/01/16 02:13:32;;;;;;;96.93;31.23;;;;;;;3.19;100.00;101751.78;5030317;28;20458;-79
2022/01/16 02:30:11;;;;;;;130.98;35.72;;;;;;;3.29;100.00;101799.88;5033684;28;20036;-79
2022/01/16 02:35:01;;;;;;;126.60;35.35;;;;;;;3.41;100.00;101809.66;5032156;28;20036;-80
2022/01/16 02:37:26;;;;;;;114.80;36.50;;;;;;;3.41;100.00;101822.09;5042849;28;20029;-81
2022/01/16 02:39:54;;;;;;;103.32;34.50;;;;;;;3.42;100.00;101832.66;5032312;28;20029;-79
2022/01/16 02:42:26;;;;;;;108.57;35.95;;;;;;;3.38;100.00;101832.97;5042193;28;20848;-78
2022/01/16 02:45:01;;;;;;;111.30;33.97;;;;;;;3.32;100.00;101836.88;5060099;28;20517;-79
2022/01/16 02:47:27;;;;;;;103.28;34.08;;;;;;;3.22;100.00;101828.66;5048229;28;20020;-79
2022/01/16 02:49:53;;;;;;;88.45;32.83;;;;;;;3.17;100.00;101828.09;5015750;28;20029;-82
2022/01/16 02:52:20;;;;;;;80.15;30.73;;;;;;;3.19;100.00;101838.66;5044630;28;20549;-80
2022/01/16 02:54:49;;;;;;;84.70;32.38;;;;;;;3.22;100.00;101836.63;5065692;28;20119;-79
2022/01/16 02:57:19;;;;;;;87.38;29.80;;;;;;;3.24;100.00;101841.84;5043845;28;20470;-79
2022/01/16 02:59:50;;;;;;;85.47;31.65;;;;;;;3.24;100.00;101825.91;5015365;28;20044;-79
2022/01/16 03:02:45;;;;;;;79.78;32.50;;;;;;;3.33;100.00;101822.63;5047597;28;20082;-79
2022/01/16 03:05:17;;;;;;;85.25;32.15;;;;;;;3.24;100.00;101815.28;5000263;28;20399;-78
2022/01/16 03:07:43;;;;;;;108.05;37.80;;;;;;;3.41;100.00;101843.38;5016520;28;20024;-78
2022/01/16 03:12:48;;;;;;;94.63;32.78;;;;;;;3.46;100.00;101852.75;5047973;28;20028;-80
2022/01/16 03:15:14;;;;;;;81.65;32.80;;;;;;;3.48;100.00;101852.66;5036199;28;20043;-79
2022/01/16 03:23:12;;;;;;;88.88;32.97;;;;;;;3.06;100.00;101858.03;5037910;28;20060;-80
2022/01/16 03:25:38;;;;;;;72.70;29.25;;;;;;;2.79;100.00;101847.41;5031197;28;20501;-78
2022/01/16 03:28:04;;;;;;;81.22;32.78;;;;;;;2.69;100.00;101856.91;5032391;28;20025;-82
2022/01/16 03:30:29;;;;;;;83.38;33.50;;;;;;;2.56;100.00;101862.16;5065154;28;20449;-80
2022/01/16 03:32:55;;;;;;;83.15;30.02;;;;;;;2.36;100.00;101847.47;5017627;28;20045;-79
2022/01/16 03:35:22;;;;;;;92.07;33.00;;;;;;;2.06;100.00;101815.72;5033836;28;20087;-81
2022/01/16 03:37:47;;;;;;;78.10;30.50;;;;;;;2.25;100.00;101857.94;5060779;28;20064;-81
2022/01/16 03:40:14;;;;;;;75.03;28.58;;;;;;;2.10;100.00;101853.56;5034902;28;20500;-79
2022/01/16 03:42:41;;;;;;;96.65;28.17;;;;;;;2.10;100.00;101854.41;5015262;28;20443;-78
2022/01/16 03:45:08;;;;;;;80.55;30.65;;;;;;;2.13;100.00;101853.38;5047037;28;20171;-84
2022/01/16 03:47:34;;;;;;;84.05;29.98;;;;;;;2.06;100.00;101826.34;5017407;28;20032;-80
2022/01/16 03:50:00;;;;;;;91.05;31.75;;;;;;;2.08;100.00;101828.91;5034040;28;20029;-79
2022/01/16 03:52:26;;;;;;;92.47;33.22;;;;;;;2.20;100.00;101855.53;5033973;28;20093;-79
2022/01/16 03:54:52;;;;;;;95.70;32.88;;;;;;;2.14;100.00;101850.63;5014051;28;20043;-81
2022/01/16 03:57:18;;;;;;;106.15;31.55;;;;;;;2.12;100.00;101847.22;5022885;28;20350;-79
2022/01/16 03:59:43;;;;;;;85.53;29.50;;;;;;;2.07;100.00;101856.41;5047968;28;20028;-78
2022/01/16 04:02:09;;;;;;;106.13;32.08;;;;;;;2.15;100.00;101857.63;5033746;28;20040;-78
2022/01/16 04:04:35;;;;;;;92.22;31.15;;;;;;;2.16;100.00;101859.31;5020904;28;20039;-82
2022/01/16 04:07:01;;;;;;;76.15;30.08;;;;;;;2.19;100.00;101872.41;5018794;28;20029;-78
2022/01/16 04:09:27;;;;;;;60.80;25.48;;;;;;;2.21;100.00;101869.66;5027838;28;20161;-79
2022/01/16 04:11:56;;;;;;;85.25;29.92;;;;;;;2.29;100.00;101858.56;5016641;28;20459;-78
2022/01/16 04:17:11;;;;;;;83.80;31.65;;;;;;;1.91;100.00;101878.53;5059979;28;20060;-78
2022/01/16 04:19:37;;;;;;;80.15;33.47;;;;;;;1.79;100.00;101878.41;5046565;28;20025;-78
2022/01/16 04:22:03;;;;;;;78.57;26.35;;;;;;;1.60;100.00;101871.56;5034671;28;20043;-78
2022/01/16 04:24:28;;;;;;;107.25;33.15;;;;;;;1.50;100.00;101886.28;5049967;28;20059;-77
2022/01/16 04:26:57;;;;;;;93.05;31.20;;;;;;;1.30;100.00;101869.75;5034077;28;20056;-78
2022/01/16 04:29:23;;;;;;;119.32;30.00;;;;;;;1.20;100.00;101879.19;5031765;28;20034;-80
2022/01/16 04:31:48;;;;;;;69.97;27.77;;;;;;;1.20;100.00;101884.47;5044286;28;20509;-79
2022/01/16 04:34:16;;;;;;;77.75;29.02;;;;;;;1.18;100.00;101882.84;5013525;28;20024;-78
2022/01/16 04:36:42;;;;;;;81.47;33.10;;;;;;;1.32;100.00;101896.16;5025290;28;20788;-77
2022/01/16 04:39:13;;;;;;;76.78;28.55;;;;;;;1.54;100.00;101895.78;5037326;28;20039;-79
2022/01/16 04:44:26;;;;;;;59.42;27.10;;;;;;;1.80;100.00;101888.06;5035500;28;20551;-80
2022/01/16 04:46:52;;;;;;;82.55;31.85;;;;;;;2.06;100.00;101897.97;5009470;28;20474;-78
2022/01/16 04:49:18;;;;;;;83.75;30.95;;;;;;;2.23;100.00;101896.13;5025398;28;20086;-78
2022/01/16 04:51:43;;;;;;;75.75;28.10;;;;;;;2.26;100.00;101886.16;5030031;28;20040;-77
2022/01/16 04:54:09;;;;;;;76.32;29.85;;;;;;;2.42;100.00;101902.00;5047152;28;20037;-78
2022/01/16 04:56:35;;;;;;;73.43;31.02;;;;;;;2.50;100.00;101888.25;5060488;28;20056;-79
2022/01/16 04:59:00;;;;;;;68.60;30.38;;;;;;;2.57;100.00;101898.38;5018101;28;20037;-79
2022/01/16 05:01:26;;;;;;;60.42;26.95;;;;;;;2.57;100.00;101895.72;5028061;28;20038;-80
2022/01/16 05:03:52;;;;;;;70.50;30.35;;;;;;;2.59;100.00;101903.59;5049111;28;20064;-78
2022/01/16 05:06:20;;;;;;;72.43;30.10;;;;;;;2.62;100.00;101898.09;5030909;28;20409;-78
2022/01/16 05:08:46;;;;;;;65.47;29.75;;;;;;;2.59;100.00;101900.94;5033770;28;20028;-81
2022/01/16 05:11:14;;;;;;;71.05;30.67;;;;;;;2.70;100.00;101911.75;5038303;28;20033;-78
2022/01/16 05:18:51;;;;;;;70.47;30.90;;;;;;;2.99;100.00;101912.56;5039302;28;20063;-78
2022/01/16 05:21:17;;;;;;;60.10;26.48;;;;;;;3.03;100.00;101899.91;5034686;28;20389;-77
2022/01/16 05:23:43;;;;;;;73.38;30.35;;;;;;;3.16;100.00;101907.94;5032064;28;20028;-78
2022/01/16 05:26:13;;;;;;;68.45;28.92;;;;;;;3.28;100.00;101909.78;5033523;28;20041;-80
2022/01/16 05:28:39;;;;;;;68.78;28.67;;;;;;;3.38;100.00;101918.88;5018725;28;20039;-79
2022/01/16 05:31:05;;;;;;;74.20;29.35;;;;;;;3.47;100.00;101917.44;5048148;28;20036;-78
2022/01/16 05:33:31;;;;;;;55.05;24.13;;;;;;;3.44;100.00;101907.84;5034661;28;20045;-78
2022/01/16 05:35:57;;;;;;;59.72;27.35;;;;;;;3.47;100.00;101904.16;5050094;28;20044;-78
2022/01/16 05:38:23;;;;;;;63.13;27.95;;;;;;;3.59;100.00;101915.75;5028180;28;20040;-84
2022/01/16 05:40:48;;;;;;;70.50;30.02;;;;;;;3.59;100.00;101916.59;5032205;28;20064;-79
2022/01/16 05:43:14;;;;;;;61.13;29.13;;;;;;;3.63;100.00;101920.78;5046357;28;20059;-78
2022/01/16 05:45:43;;;;;;;63.95;30.33;;;;;;;3.65;100.00;101920.66;5028155;28;20047;-78
2022/01/16 05:48:08;;;;;;;61.30;27.42;;;;;;;3.70;100.00;101907.91;5066275;28;20035;-77
2022/01/16 05:50:34;;;;;;;57.20;27.83;;;;;;;3.76;100.00;101920.81;5046900;28;20028;-79
2022/01/16 05:53:01;;;;;;;61.17;27.42;;;;;;;3.70;100.00;101899.94;5014718;28;20037;-79
2022/01/16 05:55:30;;;;;;;66.32;29.48;;;;;;;3.79;100.00;101915.28;5043963;28;20386;-79
2022/01/16 05:57:56;;;;;;;61.92;27.35;;;;;;;3.70;100.00;101903.44;5027214;28;20028;-83
2022/01/16 06:00:22;;;;;;;58.40;26.80;;;;;;;3.87;100.00;101930.72;5045851;28;20036;-81
2022/01/16 06:02:53;;;;;;;65.30;29.27;;;;;;;3.90;100.00;101936.69;5060617;28;20028;-78
2022/01/16 06:05:19;;;;;;;61.55;28.25;;;;;;;3.95;100.00;101942.56;5052445;28;20116;-79
2022/01/16 06:07:50;;;;;;;55.53;24.33;;;;;;;3.97;100.00;101953.97;5014938;28;20275;-81
2022/01/16 06:10:16;;;;;;;33.67;15.00;;;;;;;3.99;100.00;101959.16;5043676;28;20566;-82
2022/01/16 06:12:42;;;;;;;56.40;26.58;;;;;;;4.06;100.00;101972.91;5044956;28;20123;-78
2022/01/16 06:15:07;;;;;;;49.47;23.15;;;;;;;3.90;100.00;101943.81;5017222;28;20043;-80
2022/01/16 06:17:33;;;;;;;59.03;24.67;;;;;;;4.15;100.00;101990.91;5015236;28;20487;-79
2022/01/16 06:19:59;;;;;;;53.47;23.73;;;;;;;4.21;100.00;101987.84;5030211;28;20375;-79
2022/01/16 06:22:24;;;;;;;58.58;23.60;;;;;;;4.26;100.00;101992.84;5020486;28;20041;-83
2022/01/16 06:24:50;;;;;;;59.42;25.13;;;;;;;4.34;100.00;102009.16;5033348;28;20501;-80
2022/01/16 06:27:16;;;;;;;57.53;25.13;;;;;;;4.39;100.00;102018.56;5014769;28;20378;-79
2022/01/16 06:29:41;;;;;;;45.08;22.38;;;;;;;4.48;100.00;102026.88;5025725;28;20039;-79
2022/01/16 06:32:07;;;;;;;57.95;22.83;;;;;;;4.50;100.00;102030.25;5046107;28;20040;-78
2022/01/16 06:34:33;;;;;;;50.33;22.73;;;;;;;4.54;100.00;102050.41;5040469;28;20029;-78
2022/01/16 06:36:58;;;;;;;53.80;22.50;;;;;;;4.53;100.00;102049.56;5025083;28;20032;-81
2022/01/16 06:39:24;;;;;;;51.38;22.23;;;;;;;4.54;100.00;102050.41;5058070;28;20028;-84
2022/01/16 06:41:50;;;;;;;54.22;23.15;;;;;;;4.59;100.00;102067.78;5041507;28;20055;-82
2022/01/16 06:44:16;;;;;;;48.33;20.52;;;;;;;4.68;100.00;102076.09;5029908;28;20044;-79
2022/01/16 06:46:42;;;;;;;47.97;19.92;;;;;;;4.75;100.00;102083.56;5030885;28;20028;-78
2022/01/16 06:49:10;;;;;;;46.38;20.80;;;;;;;4.80;100.00;102086.78;5044999;28;21793;-80
2022/01/16 06:51:36;;;;;;;46.97;20.08;;;;;;;4.79;100.00;102078.88;5028543;28;20043;-80
2022/01/16 06:54:03;;;;;;;15.48;8.38;;;;;;;4.93;100.00;102089.44;5049008;28;21024;-79
2022/01/16 06:56:29;;;;;;;21.98;10.27;;;;;;;5.19;100.00;102092.97;5028365;28;20454;-81
2022/01/16 06:58:56;;;;;;;20.05;9.13;;;;;;;5.41;100.00;102100.28;5044149;28;20330;-79
2022/01/16 07:01:22;;;;;;;11.20;4.72;;;;;;;5.64;100.00;102103.13;5042556;28;20024;-82
2022/01/16 07:03:49;;;;;;;13.80;4.18;;;;;;;5.89;100.00;102120.88;5042854;28;20298;-80
2022/01/16 07:06:15;;;;;;;10.15;3.25;;;;;;;6.09;100.00;102124.81;5041432;28;20028;-85
2022/01/16 07:08:41;;;;;;;5.25;2.22;;;;;;;6.15;100.00;102132.34;5060312;28;20048;-82
2022/01/16 07:11:07;;;;;;;4.65;1.30;;;;;;;6.23;100.00;102143.31;5058375;28;20028;-80
2022/01/16 07:13:33;;;;;;;6.32;1.60;;;;;;;6.25;100.00;102145.88;5029202;28;20043;-78
2022/01/16 07:15:58;;;;;;;4.20;1.40;;;;;;;6.23;100.00;102155.81;5052314;28;20032;-79
2022/01/16 07:18:24;;;;;;;1.85;0.90;;;;;;;6.16;100.00;102172.28;5039737;28;20043;-83
2022/01/16 07:20:50;;;;;;;6.40;1.38;;;;;;;6.10;100.00;102174.56;5044932;28;20115;-81
2022/01/16 07:23:18;;;;;;;7.70;1.40;;;;;;;6.11;100.00;102179.81;5056134;28;20090;-78
2022/01/16 07:25:49;;;;;;;6.38;1.40;;;;;;;6.11;100.00;102186.94;5044134;28;20029;-79
2022/01/16 07:28:15;;;;;;;14.00;1.60;;;;;;;6.11;100.00;102201.16;5045519;28;20056;-78
2022/01/16 07:30:42;;;;;;;5.90;1.38;;;;;;;6.06;100.00;102200.66;5046529;28;20119;-79
2022/01/16 07:33:08;;;;;;;5.43;1.20;;;;;;;6.11;100.00;102209.19;5019376;28;20600;-77
2022/01/16 07:35:36;;;;;;;15.77;2.08;;;;;;;6.10;100.00;102214.63;5013111;28;20036;-78
2022/01/16 07:38:02;;;;;;;9.45;1.50;;;;;;;6.01;100.00;102215.28;5016752;28;20080;-78
2022/01/16 07:40:28;;;;;;;6.90;1.67;;;;;;;6.09;100.00;102224.44;5043807;28;20482;-79
2022/01/16 07:42:55;;;;;;;7.45;1.60;;;;;;;6.05;100.00;102222.94;5034851;28;20071;-82
2022/01/16 07:45:21;;;;;;;6.25;1.17;;;;;;;6.08;100.00;102225.41;5032474;28;20447;-78
2022/01/16 07:47:47;;;;;;;9.13;1.73;;;;;;;6.11;100.00;102213.63;5051507;28;20127;-82
2022/01/16 07:50:14;;;;;;;10.98;1.85;;;;;;;5.89;100.00;102183.13;5052387;28;20060;-78
2022/01/16 07:52:40;;;;;;;3.90;1.40;;;;;;;6.03;100.00;102218.69;5046903;28;20478;-79
2022/01/16 07:55:06;;;;;;;14.13;1.95;;;;;;;5.99;100.00;102211.88;5035611;28;20036;-81
2022/01/16 07:57:32;;;;;;;9.25;1.55;;;;;;;5.95;100.00;102216.56;5036633;28;20219;-78
2022/01/16 07:59:57;;;;;;;7.13;1.67;;;;;;;5.98;100.00;102211.03;5014059;28;20131;-78
2022/01/16 08:02:23;;;;;;;12.32;2.17;;;;;;;5.93;100.00;102216.69;5028382;28;20037;-79
2022/01/16 08:04:49;;;;;;;7.63;1.75;;;;;;;5.88;100.00;102216.13;5033692;28;20043;-78
2022/01/16 08:07:15;;;;;;;6.15;1.38;;;;;;;5.86;100.00;102222.53;5031485;28;20505;-80
2022/01/16 08:09:40;;;;;;;12.73;2.08;;;;;;;5.81;100.00;102219.34;5024568;28;20483;-79
2022/01/16 08:12:07;;;;;;;5.22;1.17;;;;;;;5.67;100.00;102202.50;5034424;28;20040;-81
2022/01/16 08:14:34;;;;;;;10.07;2.17;;;;;;;5.86;100.00;102244.75;5030953;28;20034;-81
2022/01/16 08:17:00;;;;;;;9.18;2.20;;;;;;;5.89;100.00;102241.00;5045379;28;20108;-79
2022/01/16 08:19:27;;;;;;;4.70;1.23;;;;;;;5.93;100.00;102243.38;5040286;28;20040;-78
2022/01/16 08:21:53;;;;;;;5.85;1.38;;;;;;;5.91;100.00;102245.28;5044463;28;20036;-77
2022/01/16 08:24:19;;;;;;;10.38;2.42;;;;;;;5.97;100.00;102253.84;5046609;28;20055;-78
2022/01/16 08:26:45;;;;;;;9.68;1.55;;;;;;;5.97;100.00;102260.03;5021597;28;20391;-79
2022/01/16 08:29:11;;;;;;;17.70;2.58;;;;;;;6.00;100.00;102280.31;5029367;28;20111;-80
2022/01/16 08:31:37;;;;;;;12.13;2.25;;;;;;;5.93;100.00;102270.09;5047475;28;20737;-80
2022/01/16 08:34:02;;;;;;;3.33;1.00;;;;;;;5.97;100.00;102283.22;5030947;28;20112;-79
2022/01/16 08:36:28;;;;;;;15.70;2.63;;;;;;;6.00;100.00;102291.00;5031113;28;20037;-80
2022/01/16 08:38:54;;;;;;;16.35;1.95;;;;;;;6.05;100.00;102292.38;5034715;28;20024;-80
2022/01/16 08:41:21;;;;;;;14.30;2.35;;;;;;;6.08;100.00;102300.16;5049086;28;20040;-78
2022/01/16 08:43:47;;;;;;;8.43;1.92;;;;;;;6.11;100.00;102310.66;5027593;28;20028;-80
2022/01/16 08:46:13;;;;;;;13.90;2.97;;;;;;;6.05;100.00;102316.41;5014081;28;20039;-78
2022/01/16 08:48:40;;;;;;;9.13;1.70;;;;;;;6.00;100.00;102321.22;5037566;28;20482;-80
2022/01/16 08:51:05;;;;;;;9.63;2.20;;;;;;;5.99;100.00;102327.53;5018382;28;20135;-79
2022/01/16 08:53:31;;;;;;;12.10;2.50;;;;;;;5.98;100.00;102335.63;5029545;28;20140;-81
2022/01/16 08:56:00;;;;;;;14.18;2.42;;;;;;;5.99;100.00;102332.03;5022182;28;20040;-79
2022/01/16 08:58:26;;;;;;;12.80;2.05;;;;;;;5.98;100.00;102341.84;5045549;28;20037;-78
2022/01/16 09:00:52;;;;;;;15.95;3.10;;;;;;;5.95;100.00;102336.72;5045018;28;20032;-81
2022/01/16 09:03:19;;;;;;;5.88;1.40;;;;;;;5.90;100.00;102338.81;5026133;28;20540;-78
2022/01/16 09:05:47;;;;;;;10.18;2.33;;;;;;;5.98;100.00;102346.31;5031787;28;20387;-78
2022/01/16 09:08:14;;;;;;;11.43;1.70;;;;;;;5.97;100.00;102353.47;5033293;28;20051;-80
2022/01/16 09:10:41;;;;;;;16.67;2.08;;;;;;;5.99;100.00;102361.41;5023532;28;20028;-82
2022/01/16 09:13:11;;;;;;;14.30;1.73;;;;;;;6.05;100.00;102372.50;5044756;28;20036;-79
2022/01/16 09:15:38;;;;;;;7.60;1.83;;;;;;;5.99;100.00;102364.06;5043561;28;20028;-79
2022/01/16 09:18:05;;;;;;;16.88;3.20;;;;;;;6.14;100.00;102395.91;5047342;28;20025;-79
2022/01/16 09:20:30;;;;;;;10.75;1.75;;;;;;;6.13;100.00;102404.84;5026176;28;20470;-83
2022/01/16 09:22:56;;;;;;;10.35;1.67;;;;;;;6.16;100.00;102409.97;5022206;28;20039;-78
2022/01/16 09:25:22;;;;;;;15.52;2.08;;;;;;;6.16;100.00;102406.47;5056152;28;20426;-80
2022/01/16 09:27:48;;;;;;;9.27;1.70;;;;;;;6.18;100.00;102417.06;5052181;28;20032;-80
2022/01/16 09:30:14;;;;;;;10.00;1.77;;;;;;;6.11;100.00;102416.59;5010958;28;20055;-77
2022/01/16 09:32:40;;;;;;;18.80;2.42;;;;;;;6.19;100.00;102440.13;5048096;28;20036;-79
2022/01/16 09:35:07;;;;;;;8.27;1.35;;;;;;;6.23;100.00;102444.28;5018670;28;20129;-79
2022/01/16 09:37:35;;;;;;;14.90;1.70;;;;;;;6.34;100.00;102442.56;5028565;28;20044;-79
2022/01/16 09:40:00;;;;;;;2.25;1.08;;;;;;;6.52;100.00;102450.28;5018334;28;20436;-80
2022/01/16 09:42:27;;;;;;;15.15;1.80;;;;;;;6.54;100.00;102451.03;5027001;28;20139;-80
2022/01/16 09:44:55;;;;;;;11.38;1.70;;;;;;;6.50;100.00;102447.69;5041529;28;20043;-78
2022/01/16 09:47:21;;;;;;;7.50;1.83;;;;;;;6.58;100.00;102464.03;5046542;28;20104;-78
2022/01/16 09:49:47;;;;;;;12.77;2.90;;;;;;;6.59;100.00;102462.25;5041146;28;20067;-79
2022/01/16 09:52:13;;;;;;;11.77;2.90;;;;;;;6.68;100.00;102480.31;5016165;28;20117;-78
2022/01/16 09:54:39;;;;;;;10.13;2.97;;;;;;;6.67;100.00;102467.03;5029978;28;20205;-79
2022/01/16 09:57:05;;;;;;;9.05;2.10;;;;;;;6.82;100.00;102490.00;5044028;28;20047;-79
2022/01/16 09:59:35;;;;;;;7.25;2.17;;;;;;;6.93;100.00;102490.13;5041459;28;20040;-78
2022/01/16 10:02:00;;;;;;;15.82;2.58;;;;;;;6.98;100.00;102495.97;5032915;28;20533;-80
2022/01/16 10:04:35;;;;;;;7.85;2.10;;;;;;;7.09;100.00;102510.41;5046709;28;20068;-79
2022/01/16 10:07:05;;;;;;;8.60;2.05;;;;;;;7.12;100.00;102505.72;5043655;28;20093;-84
2022/01/16 10:09:35;;;;;;;10.70;2.55;;;;;;;7.21;100.00;102509.53;5048511;28;20094;-81
2022/01/16 10:12:14;;;;;;;8.52;1.77;;;;;;;7.34;100.00;102525.56;5040424;28;20032;-84
2022/01/16 10:14:52;;;;;;;4.07;1.48;;;;;;;7.42;100.00;102532.06;5043856;28;20032;-82
2022/01/16 10:17:23;;;;;;;11.05;2.75;;;;;;;7.44;99.91;102538.16;5022083;28;20463;-79
2022/01/16 10:20:01;;;;;;;18.08;3.85;;;;;;;7.37;99.70;102539.56;5031025;28;20070;-82
2022/01/16 10:22:43;;;;;;;21.92;3.47;;;;;;;7.24;99.28;102536.06;5033762;28;20029;-79
2022/01/16 10:25:09;;;;;;;14.65;2.38;;;;;;;7.32;98.28;102541.72;5067764;28;20028;-82
2022/01/16 10:27:38;;;;;;;8.27;2.97;;;;;;;7.98;95.65;102557.44;5023825;28;20094;-82
2022/01/16 10:30:13;;;;;;;12.25;3.25;;;;;;;9.39;88.13;102549.16;5068300;28;20032;-83
2022/01/16 10:32:44;;;;;;;14.68;2.80;;;;;;;8.72;88.45;102550.00;5048447;28;20025;-83
2022/01/16 10:35:20;;;;;;;9.57;2.40;;;;;;;8.18;90.50;102553.25;5041369;28;20029;-81
2022/01/16 10:37:54;;;;;;;6.53;2.13;;;;;;;8.37;90.57;102559.78;5037066;28;20037;-80
2022/01/16 10:40:31;;;;;;;6.45;2.60;;;;;;;9.41;85.62;102560.63;5045225;28;20482;-81
2022/01/16 10:42:58;;;;;;;6.90;1.90;;;;;;;12.01;74.59;102569.63;5026149;28;20512;-81
2022/01/16 10:45:33;;;;;;;12.82;2.40;;;;;;;13.55;65.18;102566.69;5056336;28;20115;-81
2022/01/16 10:48:00;;;;;;;10.77;2.65;;;;;;;14.48;60.13;102579.94;5049371;28;20035;-81
2022/01/16 10:50:28;;;;;;;11.65;1.98;;;;;;;14.82;57.28;102587.28;5016822;28;20048;-81
2022/01/16 10:53:02;;;;;;;12.75;1.98;;;;;;;14.43;56.50;102569.56;5072010;28;20474;-81
2022/01/16 10:55:33;;;;;;;5.72;1.67;;;;;;;13.29;60.18;102587.31;5039858;28;20032;-82
2022/01/16 10:58:07;;;;;;;12.52;1.63;;;;;;;13.29;61.05;102600.81;5023074;28;20043;-80
2022/01/16 11:00:33;;;;;;;7.63;1.73;;;;;;;11.81;64.01;102611.84;5056376;28;20090;-82
2022/01/16 11:03:03;;;;;;;7.68;2.85;;;;;;;11.03;67.18;102609.81;5046553;28;20060;-80
2022/01/16 11:05:33;;;;;;;8.77;2.33;;;;;;;10.50;69.42;102610.75;5025673;28;20044;-81
2022/01/16 11:08:01;;;;;;;13.18;1.88;;;;;;;10.01;69.59;102602.25;5035910;28;20447;-81
2022/01/16 11:10:32;;;;;;;12.20;2.65;;;;;;;10.68;67.35;102586.81;5054766;28;20119;-82
2022/01/16 11:13:00;;;;;;;10.55;2.38;;;;;;;11.49;64.21;102606.66;5029818;28;20040;-81
2022/01/16 11:15:27;;;;;;;7.80;2.20;;;;;;;12.55;61.38;102629.38;5025098;28;20041;-81
2022/01/16 11:17:53;;;;;;;11.30;2.22;;;;;;;13.33;56.65;102634.63;5035606;28;20664;-81
2022/01/16 11:20:26;;;;;;;13.88;2.15;;;;;;;13.12;57.29;102615.91;5055692;28;20425;-81
2022/01/16 11:25:31;;;;;;;9.40;2.03;;;;;;;14.20;52.33;102622.47;5055247;28;20513;-81
2022/01/16 11:28:08;;;;;;;8.23;1.63;;;;;;;13.17;53.79;102627.97;5044777;28;20120;-81
2022/01/16 11:30:38;;;;;;;7.22;1.70;;;;;;;12.43;55.68;102611.63;5053676;28;20111;-82
2022/01/16 11:33:04;;;;;;;5.75;1.58;;;;;;;11.45;58.96;102622.22;5061311;28;20028;-82
2022/01/16 11:35:31;;;;;;;12.85;2.10;;;;;;;11.13;60.75;102624.19;5022202;28;20115;-81
2022/01/16 11:37:57;;;;;;;12.93;1.95;;;;;;;11.15;59.92;102631.16;5054046;28;20044;-80
2022/01/16 11:40:28;;;;;;;10.88;2.30;;;;;;;11.10;60.01;102627.16;5037101;28;20033;-82
2022/01/16 11:43:17;;;;;;;5.15;1.63;;;;;;;11.04;59.49;102638.47;5038948;28;20132;-80
2022/01/16 11:46:04;;;;;;;5.65;1.60;;;;;;;10.98;58.94;102629.94;5073148;28;20054;-80
2022/01/16 11:48:40;;;;;;;4.65;1.63;;;;;;;10.85;60.57;102639.19;5072973;28;20036;-85
2022/01/16 11:51:35;;;;;;;7.72;2.05;;;;;;;10.89;59.32;102628.03;5047642;28;20093;-82
2022/01/16 11:54:20;;;;;;;2.72;1.35;;;;;;;10.21;58.85;102627.47;5027403;28;20032;-81
2022/01/16 11:56:45;;;;;;;11.70;1.50;;;;;;;9.78;60.69;102633.69;5072327;28;20029;-80
2022/01/16 11:59:46;;;;;;;10.43;2.08;;;;;;;9.85;59.78;102607.19;5067493;28;20033;-81
2022/01/16 12:02:12;;;;;;;9.93;1.80;;;;;;;10.31;58.75;102635.66;5036565;28;20040;-84
2022/01/16 12:04:43;;;;;;;9.30;2.15;;;;;;;10.37;59.69;102640.50;5072269;28;20037;-80
2022/01/16 12:07:19;;;;;;;10.98;2.15;;;;;;;11.78;55.58;102628.28;5072733;28;20103;-80
2022/01/16 12:12:13;;;;;;;7.20;1.63;;;;;;;12.13;55.04;102634.19;5053442;28;20128;-80
2022/01/16 12:14:51;;;;;;;6.40;1.30;;;;;;;10.90;54.84;102610.03;5038993;28;20187;-81